Airfield :
LOGIN :

Register | Disclaimer

   EN    FR    IT 

 










Legend :    VFR   Marginal VFR   IFR   Intensive IFR   Very Intensive IFR
Visi :
Ceiling :
>= 8 km
>= 3000ft
5 to 8 km
1000 to 3000 ft
1500m to 5 km
500 to 1000 ft
800 to 1500m
200 to 500 ft
< 800m
< 200 ft
Symbols :   Thunderstorms  Fog  Heavy snow  Heavy precipitations  Wind > 20 kt
SIGMETs :     Misc.  Thunderstorms  Icing  Turbulence  Mountain Waves  Volcanic Ashes







- Airport Elevation : 42 ft
- IATA code : LMO


EGQS - Lossiemouth

CURRENT METAR :
  • 212240Z 19003KT 9999 MIFG FEW001 06/06 Q1013 BLU

EXPIRED METARs :
  • 212150Z 21003KT 0400 FG FEW001 06/06 Q1013 RED
  • 212100Z 17002KT 9999 0400W BCFG FEW060 08/08 Q1012 RED
  • 212050Z 18002KT 9999 MIFG FEW060 09/09 Q1012 BLU
  • 211950Z 23004KT 9999 FEW020 SCT050 BKN100 10/09 Q1012 BLU

TAF AMD TAF EGQS
Valid from the 21 at 21:00 until the 22 at 15:00 UTC


212140Z 2121/2215 23005KT 9999 FEW045
BECMG 2121/2124 0500 FG BKN000
BECMG 2204/2207 9999 NSW FEW005
No reported NOTAMs for that airfield.



MET'MAP, your aeronautical weather chart ! - Copyright ORBIFLY December 2007 - Disclaimer

ORBIFLY MET'MAP TEAM :

Programming & Development : Alexandra Zaïnal
Concept & Development : Baudouin d'Aumeries
Co-Development & Prog : Marc-Olivier Méhu
Technical & hardware support : Manuel Goepfert

Contact : metmap@orbifly.com




SOURCES & CREDITS :

   NOAA